Time;durP1;ratioP1;P1;durP2;ratioP2;P2;SDS_P1;SDS_P2;PMS_P1;PMS_P2;Temp;Humidity;BMP_temperature;BMP_pressure;BME280_temperature;BME280_humidity;BME280_pressure;Samples;Min_cycle;Max_cycle;Signal;HPM_P1;HPM_P2
2022/01/10 00:01:57;;;;;;;;;;;4.60;99.90;;;;;;5036695;28;19916;-86
2022/01/10 00:04:22;;;;;;;;;;;4.60;99.90;;;;;;5036344;28;19909;-86
2022/01/10 00:06:48;;;;;;;;;;;4.60;99.90;;;;;;5036274;28;19955;-85
2022/01/10 00:09:13;;;;;;;;;;;4.60;99.90;;;;;;5054131;28;19968;-86
2022/01/10 00:11:39;;;;;;;;;;;4.50;99.90;;;;;;5036330;28;19916;-86
2022/01/10 00:14:04;;;;;;;;;;;4.60;99.90;;;;;;5035854;28;20004;-86
2022/01/10 00:16:30;;;;;;;;;;;4.60;99.90;;;;;;5036301;28;19909;-86
2022/01/10 00:18:55;;;;;;;;;;;4.60;99.90;;;;;;5036716;28;20399;-86
2022/01/10 00:21:21;;;;;;;;;;;4.60;99.90;;;;;;5036238;28;19913;-86
2022/01/10 00:23:46;;;;;;;;;;;4.50;99.90;;;;;;5036339;28;19908;-85
2022/01/10 00:26:12;;;;;;;;;;;4.60;99.90;;;;;;5054308;28;19954;-86
2022/01/10 00:28:38;;;;;;;;;;;4.60;99.90;;;;;;5039247;28;19913;-86
2022/01/10 00:31:03;;;;;;;;;;;4.60;99.90;;;;;;5040425;28;19967;-86
2022/01/10 00:33:29;;;;;;;;;;;4.60;99.90;;;;;;5040194;28;19916;-86
2022/01/10 00:35:54;;;;;;;;;;;4.60;99.90;;;;;;5040083;28;20011;-86
2022/01/10 00:38:20;;;;;;;;;;;4.70;99.90;;;;;;5040336;28;19909;-86
2022/01/10 00:40:48;;;;;;;;;;;4.70;99.90;;;;;;5040076;28;19913;-86
2022/01/10 00:43:18;;;;;;;;;;;4.70;99.90;;;;;;5057923;28;19909;-86
2022/01/10 00:45:44;;;;;;;;;;;4.70;99.90;;;;;;5040604;28;19909;-86
2022/01/10 00:48:09;;;;;;;;;;;4.70;99.90;;;;;;5040426;28;19913;-86
2022/01/10 00:50:35;;;;;;;;;;;4.70;99.90;;;;;;5040289;28;19913;-86
2022/01/10 00:53:01;;;;;;;;;;;4.70;99.90;;;;;;5040313;28;19942;-86
2022/01/10 00:55:29;;;;;;;;;;;4.70;99.90;;;;;;5039985;28;19913;-86
2022/01/10 00:57:54;;;;;;;;;;;4.70;99.90;;;;;;5057781;28;19915;-86
2022/01/10 01:00:20;;;;;;;;;;;4.70;99.90;;;;;;5039931;28;19909;-86
2022/01/10 01:02:45;;;;;;;;;;;4.70;99.90;;;;;;5039725;28;19909;-85
2022/01/10 01:05:13;;;;;;;;;;;4.70;99.90;;;;;;5039715;28;19939;-85
2022/01/10 01:07:38;;;;;;;;;;;4.70;99.90;;;;;;5039716;28;19912;-86
2022/01/10 01:12:58;;;;;;;;;;;4.60;99.90;;;;;;5057920;28;19931;-86
2022/01/10 01:15:29;;;;;;;;;;;4.60;99.90;;;;;;5057575;28;20328;-86
2022/01/10 01:25:48;;;;;;;;;;;4.50;99.90;;;;;;5057515;28;20011;-86
2022/01/10 01:28:14;;;;;;;;;;;4.50;99.90;;;;;;5039231;28;20011;-86
2022/01/10 01:30:39;;;;;;;;;;;4.50;99.90;;;;;;5039044;28;20060;-86
2022/01/10 01:33:05;;;;;;;;;;;4.50;99.90;;;;;;5057031;28;19962;-86
2022/01/10 01:35:32;;;;;;;;;;;4.60;99.90;;;;;;5038958;28;19912;-86
2022/01/10 01:37:58;;;;;;;;;;;4.60;99.90;;;;;;5039081;28;19916;-86
2022/01/10 01:40:27;;;;;;;;;;;4.60;99.90;;;;;;5038848;28;19928;-86
2022/01/10 01:42:53;;;;;;;;;;;4.60;99.90;;;;;;5056829;28;20321;-86
2022/01/10 01:45:19;;;;;;;;;;;4.60;99.90;;;;;;5038968;28;19939;-86
2022/01/10 01:47:44;;;;;;;;;;;4.60;99.90;;;;;;5038846;28;19962;-86
2022/01/10 01:50:10;;;;;;;;;;;4.50;99.90;;;;;;5039592;28;19908;-86
2022/01/10 01:52:36;;;;;;;;;;;4.40;99.90;;;;;;5039320;28;19916;-86
2022/01/10 01:55:02;;;;;;;;;;;4.50;99.90;;;;;;5038749;28;19919;-86
2022/01/10 01:57:28;;;;;;;;;;;4.50;99.90;;;;;;5056438;28;19909;-86
2022/01/10 01:59:54;;;;;;;;;;;4.50;99.90;;;;;;5038599;28;19999;-86
2022/01/10 02:02:19;;;;;;;;;;;4.50;99.90;;;;;;5038574;28;19947;-86
2022/01/10 02:04:45;;;;;;;;;;;4.50;99.90;;;;;;5056652;28;20324;-86
2022/01/10 02:07:11;;;;;;;;;;;4.50;99.90;;;;;;5038272;28;19913;-86
2022/01/10 02:09:36;;;;;;;;;;;4.50;99.90;;;;;;5038225;28;19928;-86
2022/01/10 02:12:02;;;;;;;;;;;4.50;99.90;;;;;;5038338;28;20314;-86
2022/01/10 02:14:28;;;;;;;;;;;4.50;99.90;;;;;;5038180;28;19935;-86
2022/01/10 02:16:57;;;;;;;;;;;4.40;99.90;;;;;;5038271;28;19934;-86
2022/01/10 02:19:25;;;;;;;;;;;4.30;99.90;;;;;;5038671;28;19962;-86
2022/01/10 02:21:51;;;;;;;;;;;4.30;99.90;;;;;;5038255;28;20003;-86
2022/01/10 02:24:17;;;;;;;;;;;4.20;99.90;;;;;;5038107;28;19936;-86
2022/01/10 02:26:50;;;;;;;;;;;4.10;99.90;;;;;;5038245;28;20299;-86
2022/01/10 02:29:16;;;;;;;;;;;4.00;99.90;;;;;;5055567;28;19923;-86
2022/01/10 02:31:41;;;;;;;;;;;4.00;99.90;;;;;;5037746;28;19908;-86
2022/01/10 02:34:08;;;;;;;;;;;3.90;99.90;;;;;;5056069;28;19909;-86
2022/01/10 02:36:33;;;;;;;;;;;3.80;99.90;;;;;;5037750;28;20007;-86
2022/01/10 02:39:00;;;;;;;;;;;3.70;99.90;;;;;;5037752;28;19940;-85
2022/01/10 02:41:27;;;;;;;;;;;3.60;99.90;;;;;;5037980;28;19913;-86
2022/01/10 02:43:54;;;;;;;;;;;3.60;99.90;;;;;;5037837;28;19913;-86
2022/01/10 02:46:20;;;;;;;;;;;3.60;99.90;;;;;;5037743;28;19975;-86
2022/01/10 02:48:45;;;;;;;;;;;3.60;99.90;;;;;;5055734;28;20378;-86
2022/01/10 02:51:11;;;;;;;;;;;3.60;99.90;;;;;;5037019;28;19912;-86
2022/01/10 02:53:36;;;;;;;;;;;3.60;99.90;;;;;;5037745;28;19908;-86
2022/01/10 02:56:02;;;;;;;;;;;3.50;99.90;;;;;;5037637;28;19918;-85
2022/01/10 02:58:28;;;;;;;;;;;3.50;99.90;;;;;;5037312;28;19909;-86
2022/01/10 03:00:53;;;;;;;;;;;3.40;99.90;;;;;;5037439;28;19909;-86
2022/01/10 03:03:19;;;;;;;;;;;3.30;99.90;;;;;;5037931;28;19909;-86
2022/01/10 03:05:44;;;;;;;;;;;3.30;99.90;;;;;;5037620;28;19999;-86
2022/01/10 03:08:10;;;;;;;;;;;3.30;99.90;;;;;;5037357;28;20378;-86
2022/01/10 03:10:35;;;;;;;;;;;3.20;99.90;;;;;;5036798;28;19920;-87
2022/01/10 03:13:01;;;;;;;;;;;3.20;99.90;;;;;;5037106;28;20318;-86
2022/01/10 03:15:27;;;;;;;;;;;3.10;99.90;;;;;;5037159;28;19909;-86
2022/01/10 03:17:52;;;;;;;;;;;3.10;99.90;;;;;;5037129;28;19909;-86
2022/01/10 03:20:18;;;;;;;;;;;3.10;99.90;;;;;;5037368;28;20431;-86
2022/01/10 03:22:44;;;;;;;;;;;3.10;99.90;;;;;;5037054;28;19916;-86
2022/01/10 03:25:09;;;;;;;;;;;3.10;99.90;;;;;;5037098;28;19909;-85
2022/01/10 03:27:35;;;;;;;;;;;3.20;99.90;;;;;;5037057;28;20280;-86
2022/01/10 03:30:01;;;;;;;;;;;3.10;99.90;;;;;;5036883;28;20355;-85
2022/01/10 03:32:26;;;;;;;;;;;3.10;99.90;;;;;;5037059;28;19909;-86
2022/01/10 03:34:52;;;;;;;;;;;3.00;99.90;;;;;;5036801;28;19916;-86
2022/01/10 03:37:18;;;;;;;;;;;3.00;99.90;;;;;;5054701;28;19908;-85
2022/01/10 03:39:43;;;;;;;;;;;3.00;99.90;;;;;;5038940;28;20296;-85
2022/01/10 03:42:09;;;;;;;;;;;3.00;99.90;;;;;;5057023;28;19913;-86
2022/01/10 03:44:34;;;;;;;;;;;2.90;99.90;;;;;;5039359;28;19931;-86
2022/01/10 03:47:01;;;;;;;;;;;2.90;99.90;;;;;;5039407;28;19963;-85
2022/01/10 03:49:27;;;;;;;;;;;2.90;99.90;;;;;;5038688;28;20352;-86
2022/01/10 03:51:52;;;;;;;;;;;2.90;99.90;;;;;;5036739;28;19944;-86
2022/01/10 03:54:18;;;;;;;;;;;3.00;99.90;;;;;;5036341;28;20007;-86
2022/01/10 03:56:43;;;;;;;;;;;3.00;99.90;;;;;;5036447;28;19996;-86
2022/01/10 03:59:09;;;;;;;;;;;3.00;99.90;;;;;;5036444;28;20319;-86
2022/01/10 04:01:38;;;;;;;;;;;3.00;99.90;;;;;;5053456;28;19909;-86
2022/01/10 04:04:04;;;;;;;;;;;3.00;99.90;;;;;;5036384;28;19909;-86
2022/01/10 04:06:29;;;;;;;;;;;2.90;99.90;;;;;;5036415;28;19916;-85
2022/01/10 04:08:55;;;;;;;;;;;3.00;99.90;;;;;;5036100;28;20010;-86
2022/01/10 04:11:20;;;;;;;;;;;3.00;99.90;;;;;;5036101;28;19912;-86
2022/01/10 04:13:46;;;;;;;;;;;3.00;99.90;;;;;;5036344;28;19916;-86
2022/01/10 04:16:11;;;;;;;;;;;2.90;99.90;;;;;;5036730;28;19909;-86
2022/01/10 04:18:37;;;;;;;;;;;2.90;99.90;;;;;;5036631;28;19913;-86
2022/01/10 04:21:03;;;;;;;;;;;2.90;99.90;;;;;;5036090;28;19912;-86
2022/01/10 04:23:28;;;;;;;;;;;2.90;99.90;;;;;;5054310;28;19908;-86
2022/01/10 04:25:54;;;;;;;;;;;2.90;99.90;;;;;;5036366;28;20310;-86
2022/01/10 04:28:19;;;;;;;;;;;2.80;99.90;;;;;;5053957;28;20359;-85
2022/01/10 04:30:45;;;;;;;;;;;2.80;99.90;;;;;;5036622;28;20287;-86
2022/01/10 04:33:16;;;;;;;;;;;2.70;99.90;;;;;;5036510;28;19913;-86
2022/01/10 04:35:42;;;;;;;;;;;2.80;99.90;;;;;;5054012;28;19909;-86
2022/01/10 04:38:08;;;;;;;;;;;2.70;99.90;;;;;;5036155;28;19932;-85
2022/01/10 04:40:34;;;;;;;;;;;2.70;99.90;;;;;;5035979;28;19913;-86
2022/01/10 04:42:59;;;;;;;;;;;2.70;99.90;;;;;;5035882;28;19916;-86
2022/01/10 04:45:25;;;;;;;;;;;2.70;99.90;;;;;;5036075;28;19909;-85
2022/01/10 04:47:50;;;;;;;;;;;2.70;99.90;;;;;;5053869;28;19919;-85
2022/01/10 04:52:45;;;;;;;;;;;2.60;99.90;;;;;;5053772;28;19951;-86
2022/01/10 04:55:10;;;;;;;;;;;2.60;99.90;;;;;;5035947;28;19952;-85
2022/01/10 04:57:36;;;;;;;;;;;2.60;99.90;;;;;;5036134;28;19909;-86
2022/01/10 05:00:02;;;;;;;;;;;2.60;99.90;;;;;;5035881;28;19995;-86
2022/01/10 05:02:28;;;;;;;;;;;2.60;99.90;;;;;;5035733;28;19909;-86
2022/01/10 05:04:53;;;;;;;;;;;2.60;99.90;;;;;;5036157;28;19944;-86
2022/01/10 05:07:19;;;;;;;;;;;2.70;99.90;;;;;;5035928;28;20011;-86
2022/01/10 05:09:44;;;;;;;;;;;2.70;99.90;;;;;;5035746;28;20322;-86
2022/01/10 05:12:10;;;;;;;;;;;2.60;99.90;;;;;;5035782;28;19909;-86
2022/01/10 05:14:35;;;;;;;;;;;2.60;99.90;;;;;;5038337;28;19919;-85
2022/01/10 05:17:01;;;;;;;;;;;2.50;99.90;;;;;;5039767;28;19919;-85
2022/01/10 05:19:27;;;;;;;;;;;2.40;99.90;;;;;;5057233;28;19966;-85
2022/01/10 05:21:52;;;;;;;;;;;2.40;99.90;;;;;;5057050;28;19909;-84
2022/01/10 05:24:18;;;;;;;;;;;2.30;99.90;;;;;;5039539;28;19935;-86
2022/01/10 05:26:43;;;;;;;;;;;2.30;99.90;;;;;;5057294;28;19908;-84
2022/01/10 05:29:09;;;;;;;;;;;2.30;99.90;;;;;;5039100;28;19921;-85
2022/01/10 05:31:34;;;;;;;;;;;2.20;99.90;;;;;;5039100;28;19915;-86
2022/01/10 05:34:01;;;;;;;;;;;2.20;99.90;;;;;;5039380;28;19909;-85
2022/01/10 05:36:26;;;;;;;;;;;2.20;99.90;;;;;;5038622;28;19913;-86
2022/01/10 05:38:52;;;;;;;;;;;2.20;99.90;;;;;;5039007;28;20017;-86
2022/01/10 05:41:17;;;;;;;;;;;2.20;99.90;;;;;;5039399;28;19912;-85
2022/01/10 05:43:43;;;;;;;;;;;2.10;99.90;;;;;;5039153;28;20381;-86
2022/01/10 05:46:12;;;;;;;;;;;2.10;99.90;;;;;;5038454;28;19917;-86
2022/01/10 05:48:39;;;;;;;;;;;2.10;99.90;;;;;;5038370;28;19917;-86
2022/01/10 05:51:05;;;;;;;;;;;2.10;99.90;;;;;;5038044;28;20378;-85
2022/01/10 05:53:31;;;;;;;;;;;2.10;99.90;;;;;;5038376;28;19913;-85
2022/01/10 05:55:56;;;;;;;;;;;2.20;99.90;;;;;;5037950;28;20004;-85
2022/01/10 05:58:22;;;;;;;;;;;2.20;99.90;;;;;;5038755;28;19909;-86
2022/01/10 06:00:48;;;;;;;;;;;2.20;99.90;;;;;;5037894;28;19916;-86
2022/01/10 06:03:13;;;;;;;;;;;2.20;99.90;;;;;;5038066;28;19991;-86
2022/01/10 06:05:39;;;;;;;;;;;2.20;99.90;;;;;;5038139;28;19915;-86
2022/01/10 06:08:05;;;;;;;;;;;2.20;99.90;;;;;;5055840;28;20379;-86
2022/01/10 06:10:31;;;;;;;;;;;2.20;99.90;;;;;;5038029;28;20072;-86
2022/01/10 06:12:57;;;;;;;;;;;2.10;99.90;;;;;;5038209;28;20348;-86
2022/01/10 06:15:23;;;;;;;;;;;2.10;99.90;;;;;;5038386;28;19971;-86
2022/01/10 06:17:49;;;;;;;;;;;2.10;99.90;;;;;;5038030;28;19912;-86
2022/01/10 06:20:14;;;;;;;;;;;2.10;99.90;;;;;;5037688;28;19934;-86
2022/01/10 06:22:40;;;;;;;;;;;2.10;99.90;;;;;;5055434;28;19916;-86
2022/01/10 06:25:07;;;;;;;;;;;2.10;99.90;;;;;;5054435;28;19915;-86
2022/01/10 06:27:32;;;;;;;;;;;2.10;99.90;;;;;;5037404;28;19909;-86
2022/01/10 06:29:58;;;;;;;;;;;2.10;99.90;;;;;;5037539;28;20388;-86
2022/01/10 06:32:24;;;;;;;;;;;2.10;99.90;;;;;;5055593;28;19909;-86
2022/01/10 06:34:49;;;;;;;;;;;2.10;99.90;;;;;;5037552;28;19916;-86
2022/01/10 06:37:15;;;;;;;;;;;2.10;99.90;;;;;;5037390;28;19909;-86
2022/01/10 06:39:40;;;;;;;;;;;2.10;99.90;;;;;;5055566;28;20111;-86
2022/01/10 06:42:06;;;;;;;;;;;2.10;99.90;;;;;;5037642;28;19913;-85
2022/01/10 06:44:32;;;;;;;;;;;2.00;99.90;;;;;;5037286;28;19909;-85
2022/01/10 06:46:57;;;;;;;;;;;2.10;99.90;;;;;;5036937;28;19916;-85
2022/01/10 06:49:23;;;;;;;;;;;2.10;99.90;;;;;;5036781;28;19921;-86
2022/01/10 06:51:49;;;;;;;;;;;2.10;99.90;;;;;;5054399;28;19909;-86
2022/01/10 06:54:15;;;;;;;;;;;2.10;99.90;;;;;;5055107;28;19975;-86
2022/01/10 06:56:41;;;;;;;;;;;2.00;99.90;;;;;;5036899;28;20413;-85
2022/01/10 06:59:06;;;;;;;;;;;2.00;99.90;;;;;;5036514;28;19909;-86
2022/01/10 07:01:32;;;;;;;;;;;2.00;99.90;;;;;;5036186;28;19943;-86
2022/01/10 07:03:58;;;;;;;;;;;2.00;99.90;;;;;;5054675;28;19956;-86
2022/01/10 07:06:24;;;;;;;;;;;2.00;99.90;;;;;;5036408;28;19912;-85
2022/01/10 07:08:49;;;;;;;;;;;2.00;99.90;;;;;;5036288;28;19924;-85
2022/01/10 07:11:15;;;;;;;;;;;2.00;99.90;;;;;;5036498;28;19939;-86
2022/01/10 07:13:40;;;;;;;;;;;2.00;99.90;;;;;;5036857;28;19920;-86
2022/01/10 07:16:06;;;;;;;;;;;2.00;99.90;;;;;;5036709;28;19916;-85
2022/01/10 07:18:31;;;;;;;;;;;2.00;99.90;;;;;;5036253;28;19909;-86
2022/01/10 07:20:57;;;;;;;;;;;2.00;99.90;;;;;;5036922;28;19947;-86
2022/01/10 07:23:25;;;;;;;;;;;2.00;99.90;;;;;;5036297;28;19981;-86
2022/01/10 07:25:51;;;;;;;;;;;2.00;99.90;;;;;;5036609;28;19995;-86
2022/01/10 07:28:17;;;;;;;;;;;2.00;99.90;;;;;;5054212;28;20023;-85
2022/01/10 07:30:43;;;;;;;;;;;2.00;99.90;;;;;;5036397;28;19913;-86
2022/01/10 07:33:08;;;;;;;;;;;1.90;99.90;;;;;;5036133;28;19909;-86
2022/01/10 07:35:34;;;;;;;;;;;2.00;99.90;;;;;;5035756;28;20260;-88
2022/01/10 07:38:00;;;;;;;;;;;2.00;99.90;;;;;;5036657;28;19944;-86
2022/01/10 07:40:26;;;;;;;;;;;2.00;99.90;;;;;;5036770;28;19976;-86
2022/01/10 07:42:52;;;;;;;;;;;1.90;99.90;;;;;;5053905;28;20418;-86
2022/01/10 07:45:17;;;;;;;;;;;2.00;99.90;;;;;;5036541;28;19955;-86
2022/01/10 07:47:43;;;;;;;;;;;2.00;99.90;;;;;;5036454;28;19913;-86
2022/01/10 07:50:10;;;;;;;;;;;2.00;99.90;;;;;;5035628;28;20035;-86
2022/01/10 07:52:35;;;;;;;;;;;2.10;99.90;;;;;;5053743;28;19970;-86
2022/01/10 07:55:04;;;;;;;;;;;2.00;99.90;;;;;;5053620;28;20344;-86
2022/01/10 07:57:29;;;;;;;;;;;2.00;99.90;;;;;;5035976;28;19909;-86
2022/01/10 07:59:55;;;;;;;;;;;2.00;99.90;;;;;;5036390;28;19962;-86
2022/01/10 08:02:21;;;;;;;;;;;2.00;99.90;;;;;;5035808;28;19913;-86
2022/01/10 08:04:47;;;;;;;;;;;2.10;99.90;;;;;;5035732;28;20411;-86
2022/01/10 08:07:13;;;;;;;;;;;2.10;99.90;;;;;;5054459;28;20024;-86
2022/01/10 08:09:38;;;;;;;;;;;2.00;99.90;;;;;;5053441;28;19967;-86
2022/01/10 08:12:04;;;;;;;;;;;2.00;99.90;;;;;;5035395;28;19916;-87
2022/01/10 08:14:30;;;;;;;;;;;2.00;99.90;;;;;;5035085;28;19920;-87
2022/01/10 08:16:56;;;;;;;;;;;2.00;99.90;;;;;;5053313;28;19915;-85
2022/01/10 08:19:22;;;;;;;;;;;2.00;99.90;;;;;;5035145;28;20377;-86
2022/01/10 08:21:48;;;;;;;;;;;1.90;99.90;;;;;;5053433;28;19935;-86
2022/01/10 08:24:14;;;;;;;;;;;1.80;99.90;;;;;;5035254;28;19908;-86
2022/01/10 08:26:40;;;;;;;;;;;1.70;99.90;;;;;;5053280;28;19971;-87
2022/01/10 08:29:06;;;;;;;;;;;1.70;99.90;;;;;;5035858;28;19917;-87
2022/01/10 08:31:31;;;;;;;;;;;1.70;99.90;;;;;;5035213;28;19961;-86
2022/01/10 08:33:57;;;;;;;;;;;1.70;99.90;;;;;;5053677;28;19952;-86
2022/01/10 08:36:24;;;;;;;;;;;1.60;99.90;;;;;;5036055;28;19931;-87
2022/01/10 08:38:49;;;;;;;;;;;1.70;99.90;;;;;;5035354;28;20248;-87
2022/01/10 08:41:15;;;;;;;;;;;1.60;99.90;;;;;;5035472;28;19965;-87
2022/01/10 08:43:40;;;;;;;;;;;1.60;99.90;;;;;;5035207;28;19908;-88
2022/01/10 08:46:06;;;;;;;;;;;1.70;99.90;;;;;;5035257;28;20371;-85
2022/01/10 08:48:32;;;;;;;;;;;1.60;99.90;;;;;;5036356;28;19924;-86
2022/01/10 08:50:57;;;;;;;;;;;1.60;99.90;;;;;;5039216;28;19908;-86
2022/01/10 08:53:23;;;;;;;;;;;1.70;99.90;;;;;;5039237;28;19909;-86
2022/01/10 08:55:48;;;;;;;;;;;1.70;99.90;;;;;;5039048;28;20402;-86
2022/01/10 08:58:14;;;;;;;;;;;1.70;99.90;;;;;;5039455;28;20050;-86
2022/01/10 09:00:40;;;;;;;;;;;1.70;99.90;;;;;;5039139;28;19909;-86
2022/01/10 09:03:06;;;;;;;;;;;1.70;99.90;;;;;;5022747;28;19935;-87
2022/01/10 09:05:32;;;;;;;;;;;1.60;99.90;;;;;;5039593;28;20419;-86
2022/01/10 09:08:00;;;;;;;;;;;1.60;99.90;;;;;;5038963;28;19917;-86
2022/01/10 09:10:26;;;;;;;;;;;1.60;99.90;;;;;;5038768;28;19982;-86
2022/01/10 09:12:52;;;;;;;;;;;1.50;99.90;;;;;;5041263;28;19912;-87
2022/01/10 09:15:17;;;;;;;;;;;1.50;99.90;;;;;;5059070;28;19931;-86
2022/01/10 09:17:43;;;;;;;;;;;1.60;99.90;;;;;;5045005;28;19916;-86
2022/01/10 09:20:09;;;;;;;;;;;1.70;99.90;;;;;;5038538;28;19921;-86
2022/01/10 09:22:34;;;;;;;;;;;1.60;99.90;;;;;;5056612;28;19909;-85
2022/01/10 09:25:00;;;;;;;;;;;1.60;99.90;;;;;;5056607;28;19916;-85
2022/01/10 09:27:26;;;;;;;;;;;1.50;99.90;;;;;;5038459;28;19909;-86
2022/01/10 09:29:51;;;;;;;;;;;1.50;99.90;;;;;;5056434;28;19913;-85
2022/01/10 09:32:17;;;;;;;;;;;1.50;99.90;;;;;;5038538;28;19908;-85
2022/01/10 09:34:42;;;;;;;;;;;1.60;99.90;;;;;;5038929;28;19913;-86
2022/01/10 09:37:08;;;;;;;;;;;1.50;99.90;;;;;;5038391;28;19924;-87
2022/01/10 09:39:34;;;;;;;;;;;1.50;99.90;;;;;;5037894;28;19909;-87
2022/01/10 09:42:00;;;;;;;;;;;1.60;99.90;;;;;;5038459;28;19909;-86
2022/01/10 09:44:26;;;;;;;;;;;1.60;99.90;;;;;;5038138;28;20425;-86
2022/01/10 09:46:51;;;;;;;;;;;1.60;99.90;;;;;;5038183;28;19935;-87
2022/01/10 09:49:17;;;;;;;;;;;1.60;99.90;;;;;;5038041;28;19965;-88
2022/01/10 09:51:43;;;;;;;;;;;1.60;99.90;;;;;;5038377;28;19909;-85
2022/01/10 09:54:09;;;;;;;;;;;1.60;99.90;;;;;;5038190;28;19913;-86
2022/01/10 09:56:35;;;;;;;;;;;1.60;99.90;;;;;;5038098;28;20011;-86
2022/01/10 09:59:00;;;;;;;;;;;1.60;99.90;;;;;;5038272;28;19909;-86
2022/01/10 10:01:27;;;;;;;;;;;1.60;99.90;;;;;;5036961;28;19916;-86
2022/01/10 10:03:58;;;;;;;;;;;1.60;99.90;;;;;;5041394;28;20352;-85
2022/01/10 10:06:24;;;;;;;;;;;1.60;99.90;;;;;;5041284;28;19909;-86
2022/01/10 10:08:50;;;;;;;;;;;1.60;99.90;;;;;;5031753;28;20360;-87
2022/01/10 10:11:16;;;;;;;;;;;1.70;99.90;;;;;;5033329;28;19984;-86
2022/01/10 10:13:56;;;;;;;;;;;1.70;99.90;;;;;;5051140;28;19921;-87
2022/01/10 10:16:22;;;;;;;;;;;1.80;99.90;;;;;;5028918;28;19919;-88
2022/01/10 10:18:48;;;;;;;;;;;1.80;99.90;;;;;;5041892;28;19964;-86
2022/01/10 10:21:14;;;;;;;;;;;1.80;99.90;;;;;;5050677;28;19909;-87
2022/01/10 10:23:46;;;;;;;;;;;1.70;99.90;;;;;;5018441;28;19913;-85
2022/01/10 10:26:14;;;;;;;;;;;1.70;99.90;;;;;;5018148;28;20374;-85
2022/01/10 10:28:39;;;;;;;;;;;1.70;99.90;;;;;;5017747;28;19924;-86
2022/01/10 10:31:05;;;;;;;;;;;1.70;99.90;;;;;;5021729;28;19909;-85
2022/01/10 10:33:31;;;;;;;;;;;1.80;99.90;;;;;;5037141;28;19962;-84
2022/01/10 10:35:56;;;;;;;;;;;1.80;99.90;;;;;;5036822;28;19999;-87
2022/01/10 10:38:26;;;;;;;;;;;1.80;99.90;;;;;;5051354;28;19932;-86
2022/01/10 10:40:53;;;;;;;;;;;1.90;99.90;;;;;;5035574;28;19909;-88
2022/01/10 10:43:20;;;;;;;;;;;1.90;99.90;;;;;;5033628;28;19917;-87
2022/01/10 10:45:49;;;;;;;;;;;2.00;99.90;;;;;;5017151;28;20008;-87
2022/01/10 10:48:15;;;;;;;;;;;2.00;99.90;;;;;;5021381;28;19924;-87
2022/01/10 10:50:44;;;;;;;;;;;2.00;99.90;;;;;;5037061;28;19908;-87
2022/01/10 10:53:13;;;;;;;;;;;2.10;99.90;;;;;;5036705;28;20337;-86
2022/01/10 10:55:39;;;;;;;;;;;2.10;99.90;;;;;;5032390;28;22176;-86
2022/01/10 10:58:06;;;;;;;;;;;2.10;99.90;;;;;;5050730;28;20318;-86
2022/01/10 11:00:32;;;;;;;;;;;2.10;99.90;;;;;;5053971;28;19909;-86
2022/01/10 11:03:02;;;;;;;;;;;2.10;99.90;;;;;;5035716;28;19955;-87
2022/01/10 11:05:31;;;;;;;;;;;2.20;99.90;;;;;;5048897;28;19917;-85
2022/01/10 11:08:07;;;;;;;;;;;2.20;99.90;;;;;;5045472;28;19956;-87
2022/01/10 11:10:33;;;;;;;;;;;2.10;99.90;;;;;;4996278;28;19926;-86
2022/01/10 11:13:00;;;;;;;;;;;2.10;99.90;;;;;;5033342;28;20404;-86
2022/01/10 11:15:27;;;;;;;;;;;2.10;99.90;;;;;;5015198;28;20365;-87
2022/01/10 11:17:53;;;;;;;;;;;2.10;99.90;;;;;;5038561;28;19916;-86
2022/01/10 11:20:22;;;;;;;;;;;2.00;99.90;;;;;;4999995;28;20012;-88
2022/01/10 11:22:49;;;;;;;;;;;2.10;99.90;;;;;;5008201;28;20008;-86
2022/01/10 11:25:23;;;;;;;;;;;2.00;99.90;;;;;;5010061;28;20344;-86
2022/01/10 11:27:49;;;;;;;;;;;2.10;99.90;;;;;;5032694;28;19983;-88
2022/01/10 11:30:22;;;;;;;;;;;2.10;99.90;;;;;;5016226;28;19913;-87
2022/01/10 11:32:57;;;;;;;;;;;2.10;99.90;;;;;;5016484;28;19909;-87
2022/01/10 11:35:42;;;;;;;;;;;2.10;99.90;;;;;;5032768;28;20375;-87
2022/01/10 11:38:16;;;;;;;;;;;2.00;99.90;;;;;;5034595;28;19909;-87
2022/01/10 11:40:42;;;;;;;;;;;2.00;99.90;;;;;;5009586;28;19914;-87
2022/01/10 11:43:08;;;;;;;;;;;2.00;99.90;;;;;;5003171;28;19913;-87
2022/01/10 11:45:45;;;;;;;;;;;2.00;99.90;;;;;;5026964;28;19932;-86
2022/01/10 11:48:11;;;;;;;;;;;1.90;99.90;;;;;;5032733;28;19991;-87
2022/01/10 11:50:48;;;;;;;;;;;1.90;99.90;;;;;;5015445;28;20215;-87
2022/01/10 11:53:16;;;;;;;;;;;2.00;99.90;;;;;;5031394;28;19949;-89
2022/01/10 11:56:01;;;;;;;;;;;2.00;99.90;;;;;;5013347;28;20276;-87
2022/01/10 11:58:27;;;;;;;;;;;2.00;99.90;;;;;;5020929;28;19948;-85
2022/01/10 12:01:04;;;;;;;;;;;1.90;99.90;;;;;;4998611;28;20320;-87
2022/01/10 12:03:33;;;;;;;;;;;1.90;99.90;;;;;;5026120;28;20379;-87
2022/01/10 12:06:04;;;;;;;;;;;1.90;99.90;;;;;;4982599;28;20368;-87
2022/01/10 12:08:45;;;;;;;;;;;1.90;99.90;;;;;;5027135;28;19987;-87
2022/01/10 12:11:14;;;;;;;;;;;2.00;99.90;;;;;;5013049;28;19929;-87
2022/01/10 12:13:40;;;;;;;;;;;2.00;99.90;;;;;;5012561;28;19913;-87
2022/01/10 12:16:06;;;;;;;;;;;2.00;99.90;;;;;;5012108;28;19916;-86
2022/01/10 12:18:31;;;;;;;;;;;1.90;99.90;;;;;;4990000;28;19971;-87
2022/01/10 12:20:57;;;;;;;;;;;1.90;99.90;;;;;;5011461;28;19939;-88
2022/01/10 12:23:22;;;;;;;;;;;1.90;99.90;;;;;;5007955;28;19917;-88
2022/01/10 12:25:52;;;;;;;;;;;1.90;99.90;;;;;;5010953;28;19997;-89
2022/01/10 12:28:22;;;;;;;;;;;1.90;99.90;;;;;;5012885;28;19925;-88
2022/01/10 12:30:52;;;;;;;;;;;1.90;99.90;;;;;;5011841;28;19998;-87
2022/01/10 12:33:21;;;;;;;;;;;1.90;99.90;;;;;;5011679;28;19913;-87
2022/01/10 12:35:49;;;;;;;;;;;1.90;99.90;;;;;;5009707;28;20253;-89
2022/01/10 12:38:22;;;;;;;;;;;1.90;99.90;;;;;;5003606;28;20357;-88
2022/01/10 12:40:54;;;;;;;;;;;1.90;99.90;;;;;;5013809;28;19910;-89
2022/01/10 12:43:21;;;;;;;;;;;1.90;99.90;;;;;;5023319;28;19933;-90
2022/01/10 12:45:50;;;;;;;;;;;1.90;99.90;;;;;;5014737;28;19909;-92
2022/01/10 12:48:17;;;;;;;;;;;1.80;99.90;;;;;;5013673;28;20376;-91
2022/01/10 12:50:51;;;;;;;;;;;1.80;99.90;;;;;;5015037;28;19920;-96
2022/01/10 12:53:35;;;;;;;;;;;1.80;99.90;;;;;;4973816;28;19917;-89
2022/01/10 12:56:07;;;;;;;;;;;1.80;99.90;;;;;;4956887;28;19919;-88
2022/01/10 12:58:34;;;;;;;;;;;1.70;99.90;;;;;;5011788;28;20296;-89
2022/01/10 13:01:07;;;;;;;;;;;1.70;99.90;;;;;;5012965;28;19917;-90
2022/01/10 13:03:33;;;;;;;;;;;1.70;99.90;;;;;;5014768;28;19913;-89
2022/01/10 13:06:06;;;;;;;;;;;1.60;99.90;;;;;;5013637;28;19960;-92
2022/01/10 13:08:40;;;;;;;;;;;1.60;99.90;;;;;;5015898;28;20341;-91
2022/01/10 13:11:15;;;;;;;;;;;1.60;99.90;;;;;;5049822;28;19943;-92
2022/01/10 13:13:50;;;;;;;;;;;1.60;99.90;;;;;;5049337;28;19917;-92
2022/01/10 13:22:46;;;;;;;;;;;1.60;99.90;;;;;;4920343;29;19922;-93
2022/01/10 13:25:37;;;;;;;;;;;1.60;99.90;;;;;;4919226;29;19915;-93
2022/01/10 13:28:09;;;;;;;;;;;1.60;99.90;;;;;;4903301;29;19986;-91
2022/01/10 13:30:39;;;;;;;;;;;1.60;99.90;;;;;;4916883;29;20038;-93
2022/01/10 13:33:14;;;;;;;;;;;1.50;99.90;;;;;;4918229;29;20020;-92
2022/01/10 13:45:01;;;;;;;;;;;1.40;99.90;;;;;;4929015;28;19969;-94
2022/01/10 13:51:02;;;;;;;;;;;;;;;;;;;;;
2022/01/10 13:57:04;;;;;;;;;;;1.30;99.90;;;;;;4920973;29;19922;-93
2022/01/10 14:02:58;;;;;;;;;;;1.20;99.90;;;;;;4921819;29;20033;-92
2022/01/10 14:05:27;;;;;;;;;;;1.20;99.90;;;;;;4918825;29;19955;-91
2022/01/10 14:11:01;;;;;;;;;;;1.20;99.90;;;;;;4910473;29;19930;-93
2022/01/10 14:13:36;;;;;;;;;;;1.20;99.90;;;;;;4976786;28;19934;-93
2022/01/10 14:16:08;;;;;;;;;;;1.10;99.90;;;;;;4962141;28;19970;-93
2022/01/10 14:18:40;;;;;;;;;;;1.10;99.90;;;;;;5044035;28;19932;-92
2022/01/10 14:21:08;;;;;;;;;;;1.00;99.90;;;;;;5041048;28;19909;-93
2022/01/10 14:23:43;;;;;;;;;;;0.90;99.90;;;;;;5040820;28;19913;-93
2022/01/10 14:26:14;;;;;;;;;;;1.00;99.90;;;;;;5040351;28;19908;-91
2022/01/10 14:28:50;;;;;;;;;;;1.00;99.90;;;;;;5041374;28;20315;-94
2022/01/10 14:31:42;;;;;;;;;;;1.00;99.90;;;;;;4998396;28;19914;-93
2022/01/10 14:34:12;;;;;;;;;;;0.90;99.90;;;;;;4994268;28;19944;-91
2022/01/10 14:40:16;;;;;;;;;;;0.90;99.90;;;;;;5061546;28;19931;-94
2022/01/10 14:42:45;;;;;;;;;;;0.90;99.90;;;;;;5025760;28;19963;-94
2022/01/10 14:45:19;;;;;;;;;;;0.90;99.90;;;;;;5025699;28;19913;-92
2022/01/10 14:48:22;;;;;;;;;;;;;;;;;;;;;
2022/01/10 14:54:34;;;;;;;;;;;;;;;;;;;;;
2022/01/10 14:57:01;;;;;;;;;;;0.70;99.90;;;;;;4977779;28;20008;-92
2022/01/10 15:14:50;;;;;;;;;;;0.60;99.90;;;;;;4942792;29;19978;-94
2022/01/10 15:17:23;;;;;;;;;;;0.60;99.90;;;;;;4961340;29;19914;-93
2022/01/10 15:20:03;;;;;;;;;;;0.60;99.90;;;;;;4958288;29;19910;-91
2022/01/10 15:22:41;;;;;;;;;;;0.60;99.90;;;;;;4943796;29;19969;-92
2022/01/10 15:25:24;;;;;;;;;;;0.50;99.90;;;;;;4959512;29;19915;-92
2022/01/10 15:28:02;;;;;;;;;;;;;;;;;;;;;
2022/01/10 15:30:28;;;;;;;;;;;0.40;99.90;;;;;;4977870;28;20443;-93
2022/01/10 15:35:59;;;;;;;;;;;0.30;99.90;;;;;;4957553;29;19925;-95
2022/01/10 15:38:28;;;;;;;;;;;0.20;99.90;;;;;;4947175;28;19914;-91
2022/01/10 15:40:58;;;;;;;;;;;0.20;99.90;;;;;;4992280;28;19911;-92
2022/01/10 15:43:25;;;;;;;;;;;0.20;99.90;;;;;;4989179;28;19925;-92